Time;durP1;ratioP1;P1;durP2;ratioP2;P2;SDS_P1;SDS_P2;PMS_P1;PMS_P2;Temp;Humidity;BMP_temperature;BMP_pressure;BME280_temperature;BME280_humidity;BME280_pressure;Samples;Min_cycle;Max_cycle;Signal;HPM_P1;HPM_P2
2023/01/29 00:01:29;;;;;;;10.80;7.50;;;;;;;0.74;82.00;101411.13;180933;1267;43463;-66
2023/01/29 00:05:34;;;;;;;7.60;5.50;;;;;;;0.75;81.62;101409.88;180928;1266;43056;-67
2023/01/29 00:09:37;;;;;;;8.40;6.40;;;;;;;0.75;81.57;101410.04;181015;1267;43701;-67
2023/01/29 00:14:00;;;;;;;9.70;5.40;;;;;;;0.75;82.21;101414.58;181009;1267;43042;-67
2023/01/29 00:18:03;;;;;;;10.50;7.00;;;;;;;0.75;82.01;101407.79;180938;1267;58073;-67
2023/01/29 00:22:06;;;;;;;12.30;7.10;;;;;;;0.72;82.11;101404.52;180959;1266;43913;-66
2023/01/29 00:26:10;;;;;;;10.10;6.20;;;;;;;0.75;82.53;101402.36;180922;1267;43035;-67
2023/01/29 00:30:17;;;;;;;8.10;5.50;;;;;;;0.70;81.93;101395.48;180922;1267;43085;-67
2023/01/29 00:34:22;;;;;;;6.20;5.50;;;;;;;0.73;81.82;101388.27;180997;1267;44252;-66
2023/01/29 00:38:25;;;;;;;8.90;6.60;;;;;;;0.75;81.38;101381.77;180911;1267;58107;-68
2023/01/29 00:47:48;;;;;;;6.10;5.50;;;;;;;0.72;81.37;101359.81;181001;1267;43047;-67
2023/01/29 00:52:23;;;;;;;6.60;5.80;;;;;;;0.68;82.41;101361.66;180881;1266;43473;-67
2023/01/29 00:56:28;;;;;;;8.70;6.00;;;;;;;0.68;82.21;101353.63;180994;1266;44144;-67
2023/01/29 01:00:30;;;;;;;10.50;6.80;;;;;;;0.74;83.19;101353.67;180886;1266;58183;-67
2023/01/29 01:05:04;;;;;;;8.70;7.70;;;;;;;0.76;83.03;101349.60;180954;1267;43090;-67
2023/01/29 01:13:32;;;;;;;14.40;7.80;;;;;;;0.77;83.03;101345.91;180939;1267;43901;-67
2023/01/29 01:18:09;;;;;;;8.80;6.90;;;;;;;0.78;82.92;101341.17;180922;1266;43429;-67
2023/01/29 01:22:15;;;;;;;11.60;7.10;;;;;;;0.76;82.58;101339.29;179865;1276;202032;-67
2023/01/29 01:26:18;;;;;;;13.30;7.00;;;;;;;0.77;83.05;101335.63;179600;1273;43916;-66
2023/01/29 01:30:53;;;;;;;10.30;7.10;;;;;;;0.80;82.75;101333.61;179875;1276;43000;-66
2023/01/29 01:34:56;;;;;;;8.80;5.90;;;;;;;0.82;82.06;101327.98;179835;1276;43164;-67
2023/01/29 01:39:08;;;;;;;8.70;5.60;;;;;;;0.84;82.11;101320.94;180016;1275;43193;-67
2023/01/29 01:43:11;;;;;;;12.40;7.90;;;;;;;0.81;82.34;101326.09;179632;1276;58012;-67
2023/01/29 01:47:16;;;;;;;8.90;7.30;;;;;;;0.77;82.31;101323.02;179746;1276;43762;-67
2023/01/29 01:51:23;;;;;;;10.50;7.20;;;;;;;0.70;81.42;101325.64;179564;1276;43179;-67
2023/01/29 01:55:29;;;;;;;9.40;6.60;;;;;;;0.67;81.33;101319.61;179643;1267;43134;-67
2023/01/29 01:59:32;;;;;;;9.00;5.70;;;;;;;0.64;81.05;101320.02;180999;1265;43743;-67
2023/01/29 02:13:08;;;;;;;7.70;6.20;;;;;;;0.65;80.18;101325.93;181015;1266;42992;-67
2023/01/29 02:17:17;;;;;;;10.50;6.60;;;;;;;0.65;80.73;101330.82;180922;1267;43128;-67
2023/01/29 02:27:12;;;;;;;13.60;6.80;;;;;;;0.68;79.50;101331.29;180997;1266;58035;-66
2023/01/29 02:31:40;;;;;;;25.70;6.60;;;;;;;0.66;80.08;101319.27;180974;1266;43023;-67
2023/01/29 02:35:55;;;;;;;8.90;8.00;;;;;;;0.62;80.33;101306.28;180986;1266;43006;-67
2023/01/29 02:40:42;;;;;;;16.30;8.70;;;;;;;0.58;80.55;101303.92;180910;1267;43700;-66
2023/01/29 02:44:53;;;;;;;12.40;8.60;;;;;;;0.54;80.52;101304.73;180952;1267;43012;-67
2023/01/29 02:49:33;;;;;;;9.70;7.40;;;;;;;0.50;80.18;101304.48;180925;1266;58316;-67
2023/01/29 02:58:24;;;;;;;11.90;8.80;;;;;;;0.38;79.99;101311.73;180999;1267;43732;-67
2023/01/29 03:02:50;;;;;;;15.30;8.70;;;;;;;0.39;80.58;101315.20;180912;1267;43126;-66
2023/01/29 03:06:59;;;;;;;12.20;9.30;;;;;;;0.32;80.81;101311.01;180910;1267;43014;-66
2023/01/29 03:11:05;;;;;;;14.40;8.60;;;;;;;0.28;80.86;101316.15;180862;1267;58047;-67
2023/01/29 03:20:24;;;;;;;12.40;9.00;;;;;;;0.36;81.33;101326.77;181046;1267;43817;-65
2023/01/29 03:33:35;;;;;;;10.30;8.70;;;;;;;0.38;80.69;101318.70;180907;1266;57943;-66
2023/01/29 03:38:08;;;;;;;15.50;10.10;;;;;;;0.35;80.87;101295.55;180939;1267;43039;-66
2023/01/29 03:42:37;;;;;;;15.40;9.70;;;;;;;0.31;80.03;101300.70;180967;1267;43110;-67
2023/01/29 03:46:43;;;;;;;11.70;7.60;;;;;;;0.27;79.67;101301.67;180893;1267;43859;-66
2023/01/29 03:51:21;;;;;;;12.60;8.30;;;;;;;0.24;79.84;101308.20;181000;1266;43716;-66
2023/01/29 03:55:37;;;;;;;12.60;8.50;;;;;;;0.24;79.81;101310.31;180963;1267;58107;-66
2023/01/29 04:00:22;;;;;;;13.00;9.70;;;;;;;0.27;80.29;101310.23;180957;1267;43532;-66
2023/01/29 04:04:56;;;;;;;14.00;9.00;;;;;;;0.21;80.12;101301.65;180937;1267;42942;-66
2023/01/29 04:09:05;;;;;;;13.70;9.30;;;;;;;0.19;80.15;101301.52;180916;1267;43128;-66
2023/01/29 04:13:11;;;;;;;11.10;9.50;;;;;;;0.16;80.09;101304.88;180945;1267;43063;-66
2023/01/29 04:17:20;;;;;;;12.00;9.10;;;;;;;0.16;80.20;101299.82;180907;1267;58031;-66
2023/01/29 04:21:24;;;;;;;11.30;8.30;;;;;;;0.16;79.71;101292.31;180857;1267;43105;-66
2023/01/29 04:25:35;;;;;;;13.80;8.90;;;;;;;0.17;79.78;101290.05;180908;1267;43012;-67
2023/01/29 04:30:29;;;;;;;9.90;7.30;;;;;;;0.16;79.86;101277.67;180958;1267;43155;-66
2023/01/29 04:35:07;;;;;;;10.10;7.90;;;;;;;0.15;80.34;101271.07;181034;1267;43039;-66
2023/01/29 04:39:44;;;;;;;11.20;8.20;;;;;;;0.08;79.77;101265.29;180148;1275;58076;-68
2023/01/29 04:44:08;;;;;;;11.80;8.30;;;;;;;0.04;79.79;101261.19;179821;1274;43863;-66
2023/01/29 04:48:11;;;;;;;11.60;9.30;;;;;;;-0.01;79.92;101250.13;179611;1275;43215;-67
2023/01/29 04:52:38;;;;;;;10.40;7.20;;;;;;;-0.02;80.67;101245.96;179828;1274;43399;-66
2023/01/29 04:56:47;;;;;;;;;;;;;;;0.01;81.85;101249.75;180089;1274;43168;-66
2023/01/29 05:06:20;;;;;;;9.60;6.70;;;;;;;0.08;80.83;101246.45;179820;1276;43951;-66
2023/01/29 05:10:29;;;;;;;7.80;6.80;;;;;;;0.09;80.87;101232.13;180082;1274;43960;-66
2023/01/29 05:14:34;;;;;;;11.80;7.10;;;;;;;0.06;81.33;101226.08;180313;1267;43061;-66
2023/01/29 05:18:37;;;;;;;11.30;7.30;;;;;;;0.02;81.40;101217.98;181009;1266;43144;-66
2023/01/29 05:22:41;;;;;;;9.70;7.40;;;;;;;-0.09;81.51;101220.51;181007;1267;58170;-65
2023/01/29 05:31:08;;;;;;;13.30;7.30;;;;;;;-0.32;81.59;101209.14;180916;1267;43774;-65
2023/01/29 05:35:16;;;;;;;9.50;7.70;;;;;;;-0.40;82.09;101201.98;180952;1266;43709;-65
2023/01/29 05:39:19;;;;;;;10.90;8.30;;;;;;;-0.52;82.30;101203.96;180982;1267;42974;-67
2023/01/29 05:43:51;;;;;;;15.20;9.00;;;;;;;-0.55;82.54;101202.83;180981;1267;58037;-66
2023/01/29 05:47:58;;;;;;;9.10;6.70;;;;;;;-0.64;82.82;101199.69;180999;1266;43638;-66
2023/01/29 05:57:09;;;;;;;16.40;8.50;;;;;;;-0.73;83.75;101189.77;180989;1268;43639;-66
2023/01/29 06:01:17;;;;;;;10.10;7.30;;;;;;;-0.81;83.96;101188.20;181024;1267;43163;-66
2023/01/29 06:05:20;;;;;;;10.00;8.70;;;;;;;-0.89;84.47;101188.34;180919;1267;58484;-66
2023/01/29 06:09:22;;;;;;;12.80;7.90;;;;;;;-0.88;84.61;101204.17;180922;1267;43092;-66
2023/01/29 06:13:26;;;;;;;15.20;10.00;;;;;;;-0.87;84.36;101209.39;180945;1267;43047;-66
2023/01/29 06:17:28;;;;;;;16.10;8.20;;;;;;;-0.87;84.46;101210.60;180976;1267;43793;-65
2023/01/29 06:21:39;;;;;;;10.00;6.50;;;;;;;-0.84;84.49;101211.93;180926;1267;43080;-65
2023/01/29 06:25:42;;;;;;;12.00;8.60;;;;;;;-0.85;84.79;101220.30;180914;1268;58359;-65
2023/01/29 06:29:46;;;;;;;13.20;9.20;;;;;;;-0.84;84.92;101216.81;181058;1266;43105;-66
2023/01/29 06:33:49;;;;;;;12.90;8.10;;;;;;;-0.82;85.40;101221.64;181058;1267;42967;-66
2023/01/29 06:37:52;;;;;;;14.10;9.00;;;;;;;-0.77;85.43;101224.35;180967;1266;43176;-66
2023/01/29 06:42:46;;;;;;;11.00;8.90;;;;;;;-0.74;85.83;101238.39;180929;1267;42981;-65
2023/01/29 06:46:48;;;;;;;9.50;8.00;;;;;;;-0.65;85.67;101240.13;181013;1268;59323;-67
2023/01/29 06:50:53;;;;;;;14.30;8.90;;;;;;;-0.56;85.31;101241.17;180917;1270;43100;-65
2023/01/29 06:54:56;;;;;;;9.90;8.10;;;;;;;-0.52;85.09;101252.95;181026;1266;42963;-65
2023/01/29 06:59:26;;;;;;;10.60;7.50;;;;;;;-0.44;84.59;101266.02;181031;1265;43562;-66
2023/01/29 07:03:29;;;;;;;14.00;10.20;;;;;;;-0.36;84.18;101272.15;181043;1267;43547;-66
2023/01/29 07:07:42;;;;;;;10.60;7.60;;;;;;;-0.33;84.23;101265.64;180989;1267;58054;-66
2023/01/29 07:11:45;;;;;;;15.20;9.10;;;;;;;-0.29;83.93;101275.31;180955;1267;43489;-66
2023/01/29 07:16:04;;;;;;;10.50;8.60;;;;;;;-0.26;83.86;101264.42;180958;1266;42993;-67
2023/01/29 07:20:08;;;;;;;15.90;9.40;;;;;;;-0.23;84.08;101266.83;180960;1267;43173;-66
2023/01/29 07:24:11;;;;;;;10.00;9.00;;;;;;;-0.15;84.12;101267.17;180972;1266;43399;-67
2023/01/29 07:28:43;;;;;;;14.00;8.90;;;;;;;-0.10;83.80;101266.20;180900;1268;58021;-66
2023/01/29 07:32:46;;;;;;;13.60;10.00;;;;;;;-0.03;83.42;101270.41;180998;1266;43675;-66
2023/01/29 07:36:55;;;;;;;9.80;7.20;;;;;;;-0.02;83.03;101269.34;181048;1267;43081;-67
2023/01/29 07:40:58;;;;;;;18.80;10.50;;;;;;;0.03;83.29;101279.52;180996;1266;43674;-66
2023/01/29 07:45:06;;;;;;;18.10;11.10;;;;;;;0.07;83.49;101271.59;181026;1266;43841;-66
2023/01/29 07:49:09;;;;;;;12.00;8.50;;;;;;;0.11;83.31;101269.05;180990;1266;58286;-68
2023/01/29 07:53:43;;;;;;;9.70;7.70;;;;;;;0.02;82.73;101268.56;180944;1268;43164;-68
2023/01/29 07:57:46;;;;;;;16.20;9.70;;;;;;;0.02;83.29;101254.45;180993;1267;43711;-67
2023/01/29 08:01:49;;;;;;;19.10;10.20;;;;;;;0.02;83.61;101252.70;180933;1267;43690;-71
2023/01/29 08:05:57;;;;;;;16.30;11.10;;;;;;;-0.00;83.60;101237.91;181019;1267;42991;-67
2023/01/29 08:10:00;;;;;;;13.00;8.90;;;;;;;0.02;83.90;101231.06;180949;1268;58055;-67
2023/01/29 08:14:18;;;;;;;12.70;9.30;;;;;;;0.07;82.83;101214.21;180889;1267;43023;-68
2023/01/29 08:18:21;;;;;;;12.40;9.20;;;;;;;0.11;82.64;101225.61;180923;1267;43059;-68
2023/01/29 08:22:29;;;;;;;17.00;10.20;;;;;;;0.09;83.18;101215.72;181002;1267;43110;-68
2023/01/29 08:26:32;;;;;;;12.50;8.70;;;;;;;0.14;83.51;101205.48;181035;1267;43777;-67
2023/01/29 08:30:35;;;;;;;17.50;9.30;;;;;;;0.17;83.04;101191.30;181012;1267;59365;-67
2023/01/29 08:35:08;;;;;;;14.80;9.10;;;;;;;0.27;83.04;101185.98;181013;1267;43002;-70
2023/01/29 08:44:03;;;;;;;15.00;9.60;;;;;;;0.48;83.00;101184.97;144458;1283;77040;-68
2023/01/29 08:57:59;;;;;;;13.90;9.90;;;;;;;0.65;80.97;101174.59;142832;1295;44683;-67
2023/01/29 09:28:08;;;;;;;18.10;9.30;;;;;;;1.31;78.95;101169.65;181039;1265;75427;-68
2023/01/29 09:32:43;;;;;;;15.80;9.70;;;;;;;1.31;79.50;101161.95;164546;1268;78345;-68
2023/01/29 09:36:56;;;;;;;13.00;9.30;;;;;;;1.43;79.16;101157.73;180955;1268;43019;-67
2023/01/29 09:41:01;;;;;;;16.60;10.10;;;;;;;1.49;78.57;101158.79;180895;1267;59270;-68
2023/01/29 09:45:16;;;;;;;14.50;11.00;;;;;;;1.64;78.50;101154.70;180946;1268;43687;-69
2023/01/29 09:49:30;;;;;;;13.40;7.90;;;;;;;1.67;78.90;101157.39;180922;1267;42982;-68
2023/01/29 09:53:44;;;;;;;13.10;9.80;;;;;;;1.76;80.12;101156.59;180870;1267;43109;-70
2023/01/29 09:57:59;;;;;;;17.90;10.70;;;;;;;1.79;79.20;101153.52;180902;1267;43044;-68
2023/01/29 10:02:27;;;;;;;16.60;10.90;;;;;;;1.86;78.70;101140.90;180903;1268;57932;-68
2023/01/29 10:07:10;;;;;;;14.00;8.90;;;;;;;1.98;78.58;101134.23;180969;1267;43112;-69
2023/01/29 10:11:25;;;;;;;14.60;9.90;;;;;;;2.03;78.45;101128.29;180931;1267;43126;-68
2023/01/29 10:15:31;;;;;;;11.90;8.90;;;;;;;2.01;78.01;101124.16;180923;1268;43652;-70
2023/01/29 10:19:58;;;;;;;12.60;9.80;;;;;;;2.02;79.06;101127.42;181014;1267;43137;-68
2023/01/29 10:24:21;;;;;;;12.40;8.90;;;;;;;1.99;80.33;101125.26;180978;1268;56925;-68
2023/01/29 10:28:23;;;;;;;12.80;7.10;;;;;;;2.06;81.08;101125.58;180857;1268;43931;-72
2023/01/29 10:32:39;;;;;;;13.70;8.20;;;;;;;2.17;80.05;101119.96;181036;1267;43752;-72
2023/01/29 10:36:46;;;;;;;14.60;9.30;;;;;;;2.28;79.51;101110.99;181012;1268;43827;-71
2023/01/29 10:41:14;;;;;;;13.80;9.50;;;;;;;2.37;79.97;101109.15;180978;1267;43841;-72
2023/01/29 10:55:26;;;;;;;17.20;9.90;;;;;;;2.48;80.34;101077.95;181022;1267;43534;-72
2023/01/29 11:00:12;;;;;;;12.30;9.00;;;;;;;2.53;80.01;101069.19;180990;1268;43761;-73
2023/01/29 11:04:15;;;;;;;11.20;8.20;;;;;;;2.57;80.52;101063.96;181084;1267;43051;-73
2023/01/29 11:08:22;;;;;;;11.00;7.30;;;;;;;2.59;80.13;101055.13;180991;1267;57900;-72
2023/01/29 11:12:30;;;;;;;10.00;6.30;;;;;;;2.61;79.39;101052.98;180921;1267;43386;-73
2023/01/29 11:16:46;;;;;;;9.70;8.70;;;;;;;2.65;78.90;101050.04;180955;1266;43539;-72
2023/01/29 11:25:51;;;;;;;11.20;8.70;;;;;;;2.70;79.82;101035.29;181021;1267;43686;-72
2023/01/29 11:30:22;;;;;;;16.60;11.70;;;;;;;2.72;79.40;101030.34;180246;1273;58091;-71
2023/01/29 11:34:29;;;;;;;14.80;10.20;;;;;;;2.78;79.73;101030.97;180167;1273;43833;-71
2023/01/29 11:38:33;;;;;;;11.30;7.90;;;;;;;2.84;80.11;101029.35;180044;1274;43616;-71
2023/01/29 11:42:42;;;;;;;12.10;9.00;;;;;;;2.92;80.36;101026.42;180482;1272;43764;-73
2023/01/29 11:46:46;;;;;;;11.40;8.70;;;;;;;2.87;78.87;101009.44;180424;1270;43164;-72
2023/01/29 11:50:52;;;;;;;16.10;9.50;;;;;;;2.81;79.57;101002.66;180943;1268;57923;-72
2023/01/29 11:55:25;;;;;;;10.00;7.80;;;;;;;2.76;79.83;100995.67;180958;1268;43060;-72
2023/01/29 11:59:42;;;;;;;14.80;8.20;;;;;;;2.77;80.15;100985.14;181042;1266;42956;-72
2023/01/29 12:03:52;;;;;;;14.00;10.70;;;;;;;2.82;80.72;100980.52;180967;1267;43061;-72
2023/01/29 12:12:32;;;;;;;18.00;11.80;;;;;;;2.98;81.08;100966.09;180311;1268;59657;-89
2023/01/29 12:16:55;;;;;;;16.00;11.40;;;;;;;3.08;80.88;100960.98;180109;1267;44141;-87
2023/01/29 12:21:01;;;;;;;13.20;9.10;;;;;;;3.18;80.87;100964.44;180048;1267;44232;-88
2023/01/29 12:25:15;;;;;;;14.10;8.70;;;;;;;3.26;80.18;100964.30;180445;1268;44026;-90
2023/01/29 13:33:35;;;;;;;14.10;8.90;;;;;;;3.62;83.53;100880.58;180951;1267;79018;-88
2023/01/29 13:37:52;;;;;;;14.60;10.40;;;;;;;3.60;83.78;100883.30;180674;1261;44505;-88
2023/01/29 13:51:30;;;;;;;14.00;9.40;;;;;;;3.52;84.21;100870.98;180752;1264;74299;-65
2023/01/29 13:56:23;;;;;;;14.20;10.70;;;;;;;3.46;84.53;100870.54;181148;1265;43013;-66
2023/01/29 14:00:39;;;;;;;17.90;10.90;;;;;;;3.39;85.29;100862.59;180758;1265;75561;-72
2023/01/29 14:05:29;;;;;;;21.70;9.40;;;;;;;3.31;85.62;100858.90;181077;1265;43063;-73
2023/01/29 14:09:37;;;;;;;17.20;10.70;;;;;;;3.30;85.65;100855.98;181097;1263;43755;-73
2023/01/29 14:13:59;;;;;;;16.60;10.70;;;;;;;3.33;86.38;100856.21;181216;1263;59628;-73
2023/01/29 14:18:26;;;;;;;16.90;9.70;;;;;;;3.37;86.42;100858.50;181167;1263;43092;-73
2023/01/29 14:22:30;;;;;;;13.60;8.60;;;;;;;3.30;86.32;100856.34;181213;1264;43085;-73
2023/01/29 14:26:37;;;;;;;10.00;7.70;;;;;;;3.18;85.96;100856.65;181102;1265;43447;-74
2023/01/29 14:30:47;;;;;;;13.20;10.50;;;;;;;3.16;86.80;100867.77;181206;1264;43057;-74
2023/01/29 14:34:59;;;;;;;15.40;9.30;;;;;;;3.14;86.91;100872.43;181005;1268;58729;-73
2023/01/29 14:39:04;;;;;;;15.20;9.30;;;;;;;3.08;86.88;100871.25;181104;1265;43094;-74
2023/01/29 14:43:20;;;;;;;12.80;10.00;;;;;;;3.07;87.31;100870.41;181078;1264;43424;-74
2023/01/29 14:47:27;;;;;;;9.70;8.60;;;;;;;3.08;87.55;100867.77;181160;1265;43083;-72
2023/01/29 14:51:37;;;;;;;13.60;8.20;;;;;;;3.06;87.66;100865.39;181130;1264;43086;-72
2023/01/29 14:55:59;;;;;;;15.30;9.00;;;;;;;3.04;87.78;100859.33;180998;1265;57909;-72
2023/01/29 15:00:06;;;;;;;13.20;8.90;;;;;;;3.03;87.91;100853.41;181048;1265;43942;-72
2023/01/29 15:04:08;;;;;;;12.50;8.90;;;;;;;3.01;88.15;100843.67;181131;1265;43766;-72
2023/01/29 15:08:28;;;;;;;15.50;10.00;;;;;;;2.99;88.19;100845.85;181168;1265;43142;-72
2023/01/29 15:12:49;;;;;;;15.70;9.80;;;;;;;2.93;88.12;100852.05;181045;1265;43764;-72
2023/01/29 15:17:15;;;;;;;18.60;12.50;;;;;;;2.89;88.30;100850.31;181069;1265;57313;-72
2023/01/29 15:21:18;;;;;;;16.10;11.20;;;;;;;2.79;88.33;100847.38;181120;1266;43186;-72
2023/01/29 15:25:21;;;;;;;17.10;13.20;;;;;;;2.77;88.84;100855.86;181074;1265;43151;-72
2023/01/29 15:29:26;;;;;;;21.80;13.50;;;;;;;2.74;89.29;100855.27;181108;1265;43059;-72
2023/01/29 15:33:30;;;;;;;13.40;10.50;;;;;;;2.72;89.32;100855.71;181081;1265;43088;-72
2023/01/29 15:37:35;;;;;;;14.80;10.00;;;;;;;2.73;89.49;100854.59;181170;1264;58314;-72
2023/01/29 15:42:20;;;;;;;16.90;11.90;;;;;;;2.77;89.56;100859.02;181093;1265;43042;-72
2023/01/29 15:46:32;;;;;;;17.60;12.60;;;;;;;2.69;89.54;100857.05;181000;1265;43689;-72
2023/01/29 15:50:40;;;;;;;16.00;12.70;;;;;;;2.63;89.87;100858.51;181022;1266;43121;-71
2023/01/29 15:54:46;;;;;;;19.20;14.00;;;;;;;2.61;90.43;100862.10;181068;1265;43153;-72
2023/01/29 15:58:51;;;;;;;16.80;11.10;;;;;;;2.48;90.09;100854.02;181041;1265;57941;-71
2023/01/29 16:02:55;;;;;;;19.20;12.90;;;;;;;2.48;90.60;100854.02;181179;1264;43614;-73
2023/01/29 16:07:00;;;;;;;19.30;12.80;;;;;;;2.47;90.40;100847.94;180896;1264;76979;-85
2023/01/29 16:15:49;;;;;;;;;;;;;;;;;;;;;
2023/01/29 16:20:44;;;;;;;17.90;12.70;;;;;;;2.44;89.45;100841.02;142515;1273;58235;-75
2023/01/29 16:25:01;;;;;;;21.00;12.10;;;;;;;2.51;89.18;100840.92;180715;1270;76091;-77
2023/01/29 16:29:31;;;;;;;16.40;12.00;;;;;;;2.58;89.82;100837.88;180725;1268;73829;-73
2023/01/29 16:33:58;;;;;;;19.90;12.30;;;;;;;2.64;90.10;100837.97;180559;1269;77646;-77
2023/01/29 16:38:07;;;;;;;22.20;13.00;;;;;;;2.68;90.35;100837.45;180950;1264;74647;-74
2023/01/29 16:42:18;;;;;;;23.00;12.60;;;;;;;2.71;90.12;100835.25;180891;1265;59705;-75
2023/01/29 16:46:27;;;;;;;17.90;12.00;;;;;;;2.70;89.60;100827.73;180961;1265;43629;-75
2023/01/29 16:51:16;;;;;;;19.80;12.10;;;;;;;2.66;89.18;100823.18;180838;1268;43285;-76
2023/01/29 16:55:22;;;;;;;15.70;10.10;;;;;;;2.58;89.00;100818.92;180873;1268;43382;-74
2023/01/29 16:59:35;;;;;;;12.80;10.60;;;;;;;2.55;88.87;100816.45;180919;1268;43871;-77
2023/01/29 17:03:40;;;;;;;19.60;11.80;;;;;;;2.51;88.40;100814.85;180799;1268;57971;-76
2023/01/29 17:07:45;;;;;;;12.70;9.70;;;;;;;2.48;88.28;100803.76;180865;1265;43151;-79
2023/01/29 17:11:55;;;;;;;16.50;10.10;;;;;;;2.42;88.19;100799.95;180946;1265;43695;-79
2023/01/29 17:16:03;;;;;;;16.10;9.60;;;;;;;2.35;87.48;100794.64;180985;1265;43829;-76
2023/01/29 17:20:14;;;;;;;14.80;10.20;;;;;;;2.37;87.55;100790.02;181030;1264;43196;-77
2023/01/29 17:24:19;;;;;;;16.10;11.10;;;;;;;2.40;87.40;100786.20;180912;1267;58623;-82
2023/01/29 17:28:26;;;;;;;13.40;9.50;;;;;;;2.42;87.08;100782.96;180914;1265;43915;-77
2023/01/29 17:32:30;;;;;;;13.80;9.50;;;;;;;2.39;87.31;100778.03;180839;1267;43531;-80
2023/01/29 17:37:19;;;;;;;18.40;10.90;;;;;;;2.37;86.41;100772.14;180986;1265;43829;-78
2023/01/29 17:41:30;;;;;;;12.20;9.10;;;;;;;2.39;86.20;100776.64;180928;1267;43086;-77
2023/01/29 17:45:34;;;;;;;13.40;9.70;;;;;;;2.40;86.26;100778.87;180926;1265;58315;-78
2023/01/29 17:49:39;;;;;;;15.40;11.30;;;;;;;2.40;86.13;100778.34;181035;1264;43732;-79
2023/01/29 17:53:44;;;;;;;16.40;12.20;;;;;;;2.37;86.16;100771.98;180941;1265;43773;-82
2023/01/29 17:57:50;;;;;;;19.70;10.80;;;;;;;2.36;86.31;100770.63;180906;1266;43717;-83
2023/01/29 18:01:58;;;;;;;20.20;11.00;;;;;;;2.43;86.88;100763.16;181009;1267;43768;-77
2023/01/29 18:06:05;;;;;;;15.10;10.90;;;;;;;2.49;86.24;100759.10;180992;1265;58739;-75
2023/01/29 18:10:17;;;;;;;16.40;10.00;;;;;;;2.51;86.12;100748.14;180957;1266;43866;-80
2023/01/29 18:14:21;;;;;;;15.70;9.10;;;;;;;2.50;85.79;100740.48;180875;1266;43554;-75
2023/01/29 18:18:26;;;;;;;16.00;8.20;;;;;;;2.47;85.73;100735.71;180931;1267;43393;-76
2023/01/29 18:22:33;;;;;;;12.40;9.30;;;;;;;2.46;85.43;100725.60;181040;1265;43075;-79
2023/01/29 18:26:38;;;;;;;14.50;10.20;;;;;;;2.41;84.99;100723.66;181006;1265;57532;-79
2023/01/29 18:30:44;;;;;;;12.40;9.20;;;;;;;2.40;85.03;100719.34;180987;1265;43154;-80
2023/01/29 18:34:48;;;;;;;;;;;;;;;2.33;85.17;100716.65;180920;1268;43799;-76
2023/01/29 18:38:52;;;;;;;15.80;9.30;;;;;;;2.27;85.28;100707.62;180965;1265;43479;-77
2023/01/29 18:42:59;;;;;;;10.20;7.20;;;;;;;2.25;85.60;100706.83;180982;1266;43710;-77
2023/01/29 18:47:04;;;;;;;12.90;9.20;;;;;;;2.17;85.82;100698.21;181034;1265;58640;-79
2023/01/29 18:51:11;;;;;;;8.50;6.80;;;;;;;2.14;85.61;100694.66;181028;1265;43941;-78
2023/01/29 18:55:15;;;;;;;7.50;6.10;;;;;;;2.14;86.02;100688.70;181022;1265;43796;-81
2023/01/29 18:59:23;;;;;;;14.30;8.00;;;;;;;2.13;85.92;100685.08;180992;1265;44401;-81
2023/01/29 19:03:30;;;;;;;12.00;7.00;;;;;;;2.12;86.24;100681.27;181011;1265;43808;-80
2023/01/29 19:07:52;;;;;;;11.40;7.40;;;;;;;2.14;85.92;100670.83;180988;1265;58925;-82
2023/01/29 19:11:56;;;;;;;9.60;6.70;;;;;;;2.20;85.86;100671.52;180981;1265;44164;-78
2023/01/29 19:16:13;;;;;;;7.90;6.40;;;;;;;2.26;85.48;100670.91;181022;1265;45246;-77
2023/01/29 19:20:18;;;;;;;13.00;8.40;;;;;;;2.28;85.30;100670.09;181002;1265;43709;-80
2023/01/29 19:24:24;;;;;;;9.40;6.40;;;;;;;2.25;85.09;100673.23;180927;1267;43941;-78
2023/01/29 19:28:29;;;;;;;12.60;8.00;;;;;;;2.24;85.08;100677.09;180982;1269;58318;-79
2023/01/29 19:32:33;;;;;;;11.20;6.90;;;;;;;2.26;85.17;100671.61;181015;1265;43091;-76
2023/01/29 19:36:38;;;;;;;12.30;7.30;;;;;;;2.28;84.65;100660.50;181023;1265;43234;-76
2023/01/29 19:40:51;;;;;;;11.80;6.90;;;;;;;2.25;84.43;100652.04;180936;1267;43164;-79
2023/01/29 19:44:55;;;;;;;10.70;6.60;;;;;;;2.18;84.37;100640.77;180907;1265;43446;-80
2023/01/29 19:48:58;;;;;;;10.30;7.60;;;;;;;2.11;84.61;100628.11;181051;1265;58435;-74
2023/01/29 19:53:04;;;;;;;9.50;6.50;;;;;;;1.99;84.98;100625.27;180890;1267;43721;-78
2023/01/29 19:57:08;;;;;;;10.20;7.40;;;;;;;1.91;84.78;100624.73;180935;1265;43096;-77
2023/01/29 20:01:17;;;;;;;12.10;8.40;;;;;;;1.83;84.57;100614.89;181042;1265;43746;-80
2023/01/29 20:05:22;;;;;;;15.20;7.80;;;;;;;1.79;85.06;100613.83;180945;1267;43102;-75
2023/01/29 20:09:28;;;;;;;17.60;9.60;;;;;;;1.70;85.31;100611.20;180923;1263;59549;-72
2023/01/29 20:13:31;;;;;;;10.00;7.40;;;;;;;1.65;85.80;100619.77;180987;1267;43888;-73
2023/01/29 20:17:34;;;;;;;13.70;9.20;;;;;;;1.64;86.25;100614.23;180914;1267;43842;-71
2023/01/29 20:21:37;;;;;;;12.30;7.60;;;;;;;1.61;86.65;100605.10;180949;1267;43191;-72
2023/01/29 20:25:42;;;;;;;16.20;8.90;;;;;;;1.59;86.81;100607.77;180953;1267;43450;-71
2023/01/29 20:29:45;;;;;;;11.20;7.30;;;;;;;1.61;86.61;100607.71;180909;1266;58058;-71
2023/01/29 20:33:48;;;;;;;12.50;7.30;;;;;;;1.60;86.47;100604.61;181001;1267;43831;-71
2023/01/29 20:38:42;;;;;;;7.40;5.10;;;;;;;1.62;86.61;100607.86;181029;1267;43665;-72
2023/01/29 20:42:45;;;;;;;5.90;4.80;;;;;;;1.63;86.18;100603.09;181002;1269;43684;-71
2023/01/29 20:46:48;;;;;;;10.60;4.50;;;;;;;1.57;86.29;100602.98;180936;1266;43203;-71
2023/01/29 20:50:52;;;;;;;8.40;5.60;;;;;;;1.52;85.74;100601.39;180881;1268;58391;-72
2023/01/29 20:55:22;;;;;;;11.80;6.10;;;;;;;1.54;85.59;100589.30;180961;1267;43092;-73
2023/01/29 20:59:27;;;;;;;6.20;5.00;;;;;;;1.55;85.29;100581.02;180959;1267;43387;-73
2023/01/29 21:03:30;;;;;;;8.60;5.70;;;;;;;1.53;84.80;100581.09;180909;1267;43334;-73
2023/01/29 21:08:24;;;;;;;5.40;4.10;;;;;;;1.50;84.94;100580.86;180907;1267;43176;-73
2023/01/29 21:12:26;;;;;;;10.10;6.10;;;;;;;1.42;85.00;100570.66;180978;1266;58542;-72
2023/01/29 21:16:56;;;;;;;7.10;6.20;;;;;;;1.38;85.11;100569.79;181036;1267;43105;-72
2023/01/29 21:20:59;;;;;;;10.10;6.30;;;;;;;1.36;85.08;100557.45;181043;1267;43851;-72
2023/01/29 21:25:02;;;;;;;8.60;5.20;;;;;;;1.32;84.15;100545.55;180907;1267;43642;-73
2023/01/29 21:29:05;;;;;;;7.10;4.60;;;;;;;1.28;83.90;100535.57;180943;1266;42963;-72
2023/01/29 21:33:08;;;;;;;8.20;4.50;;;;;;;1.25;84.05;100531.14;181001;1267;59428;-72
2023/01/29 21:37:12;;;;;;;7.60;4.80;;;;;;;1.22;83.44;100519.22;180948;1267;43074;-72
2023/01/29 21:41:14;;;;;;;8.20;6.00;;;;;;;1.26;83.79;100520.27;180895;1267;43037;-73
2023/01/29 21:45:19;;;;;;;7.40;4.70;;;;;;;1.28;83.94;100518.63;180963;1267;43785;-72
2023/01/29 21:49:23;;;;;;;6.20;4.60;;;;;;;1.34;83.89;100512.46;181051;1267;42969;-73
2023/01/29 21:53:25;;;;;;;7.70;5.00;;;;;;;1.41;83.52;100507.27;180940;1267;57890;-73
2023/01/29 21:57:28;;;;;;;9.40;5.30;;;;;;;1.49;82.97;100499.27;180945;1267;43770;-73
2023/01/29 22:01:32;;;;;;;7.10;5.10;;;;;;;1.54;82.39;100492.08;181006;1267;43087;-73
2023/01/29 22:05:40;;;;;;;6.80;4.50;;;;;;;1.60;81.88;100488.16;180925;1267;43185;-74
2023/01/29 22:09:43;;;;;;;6.30;4.30;;;;;;;1.70;81.85;100488.82;180873;1267;43131;-73
2023/01/29 22:13:46;;;;;;;4.70;4.00;;;;;;;1.68;81.61;100484.69;180945;1266;58317;-73
2023/01/29 22:18:16;;;;;;;5.90;5.30;;;;;;;1.72;81.70;100483.13;180992;1267;43591;-73
2023/01/29 22:22:19;;;;;;;7.20;4.60;;;;;;;1.74;81.04;100479.17;180995;1267;43414;-74
2023/01/29 22:26:22;;;;;;;8.70;5.10;;;;;;;1.80;81.02;100471.95;181060;1266;43045;-73
2023/01/29 22:30:30;;;;;;;5.10;4.60;;;;;;;1.84;81.26;100459.17;181016;1267;43045;-73
2023/01/29 22:34:33;;;;;;;9.60;4.90;;;;;;;1.84;81.32;100446.23;180997;1266;58031;-73